sensor_id;sensor_type;location;lat;lon;timestamp;pressure;altitude;pressure_sealevel;temperature;humidity
47080;BME280;33067;49.296;14.470;2023-05-16T00:00:54;96511.38;;;12.69;45.83
47080;BME280;33067;49.296;14.470;2023-05-16T00:03:18;96511.91;;;12.78;46.01
47080;BME280;33067;49.296;14.470;2023-05-16T00:05:44;96514.11;;;12.58;46.45
47080;BME280;33067;49.296;14.470;2023-05-16T00:08:10;96512.34;;;12.47;46.73
47080;BME280;33067;49.296;14.470;2023-05-16T00:10:35;96511.14;;;12.34;46.47
47080;BME280;33067;49.296;14.470;2023-05-16T00:13:01;96513.47;;;12.69;46.13
47080;BME280;33067;49.296;14.470;2023-05-16T00:15:26;96515.65;;;12.61;46.22
47080;BME280;33067;49.296;14.470;2023-05-16T00:17:51;96519.94;;;12.38;46.09
47080;BME280;33067;49.296;14.470;2023-05-16T00:20:17;96528.29;;;11.41;47.91
47080;BME280;33067;49.296;14.470;2023-05-16T00:22:42;96521.80;;;11.66;48.12
47080;BME280;33067;49.296;14.470;2023-05-16T00:25:08;96518.51;;;12.09;48.06
47080;BME280;33067;49.296;14.470;2023-05-16T00:27:33;96514.52;;;11.70;48.03
47080;BME280;33067;49.296;14.470;2023-05-16T00:30:00;96512.80;;;11.63;47.88
47080;BME280;33067;49.296;14.470;2023-05-16T00:32:25;96514.46;;;11.58;47.79
47080;BME280;33067;49.296;14.470;2023-05-16T00:34:50;96516.71;;;12.00;47.71
47080;BME280;33067;49.296;14.470;2023-05-16T00:37:15;96516.76;;;11.73;47.39
47080;BME280;33067;49.296;14.470;2023-05-16T00:39:41;96524.52;;;11.53;47.62
47080;BME280;33067;49.296;14.470;2023-05-16T00:42:06;96525.29;;;11.58;47.37
47080;BME280;33067;49.296;14.470;2023-05-16T00:44:32;96528.96;;;11.37;47.65
47080;BME280;33067;49.296;14.470;2023-05-16T00:46:57;96537.51;;;11.43;47.81
47080;BME280;33067;49.296;14.470;2023-05-16T00:49:22;96541.83;;;11.52;47.74
47080;BME280;33067;49.296;14.470;2023-05-16T00:51:47;96543.36;;;11.34;47.83
47080;BME280;33067;49.296;14.470;2023-05-16T00:54:13;96540.97;;;11.45;47.72
47080;BME280;33067;49.296;14.470;2023-05-16T00:56:40;96540.40;;;11.61;47.95
47080;BME280;33067;49.296;14.470;2023-05-16T00:59:04;96540.39;;;11.32;47.94
47080;BME280;33067;49.296;14.470;2023-05-16T01:01:31;96534.06;;;11.29;47.73
47080;BME280;33067;49.296;14.470;2023-05-16T01:03:57;96532.78;;;11.54;47.70
47080;BME280;33067;49.296;14.470;2023-05-16T01:06:22;96533.55;;;11.32;47.60
47080;BME280;33067;49.296;14.470;2023-05-16T01:08:45;96534.03;;;11.47;47.38
47080;BME280;33067;49.296;14.470;2023-05-16T01:11:18;96536.04;;;11.46;47.61
47080;BME280;33067;49.296;14.470;2023-05-16T01:13:43;96541.96;;;11.48;47.22
47080;BME280;33067;49.296;14.470;2023-05-16T01:16:08;96542.39;;;11.24;47.60
47080;BME280;33067;49.296;14.470;2023-05-16T01:18:35;96542.08;;;11.61;46.90
47080;BME280;33067;49.296;14.470;2023-05-16T01:20:57;96542.47;;;11.50;46.83
47080;BME280;33067;49.296;14.470;2023-05-16T01:23:34;96538.40;;;11.54;46.93
47080;BME280;33067;49.296;14.470;2023-05-16T01:28:09;96530.43;;;11.80;46.99
47080;BME280;33067;49.296;14.470;2023-05-16T01:30:38;96521.21;;;11.73;46.48
47080;BME280;33067;49.296;14.470;2023-05-16T01:32:59;96515.31;;;11.70;46.66
47080;BME280;33067;49.296;14.470;2023-05-16T01:35:25;96512.33;;;11.69;46.87
47080;BME280;33067;49.296;14.470;2023-05-16T01:37:57;96512.21;;;12.21;46.78
47080;BME280;33067;49.296;14.470;2023-05-16T01:40:22;96514.89;;;11.77;46.57
47080;BME280;33067;49.296;14.470;2023-05-16T01:42:44;96519.02;;;11.65;46.65
47080;BME280;33067;49.296;14.470;2023-05-16T01:45:11;96518.73;;;11.63;46.60
47080;BME280;33067;49.296;14.470;2023-05-16T01:47:32;96516.33;;;11.69;46.65
47080;BME280;33067;49.296;14.470;2023-05-16T01:50:07;96517.52;;;11.56;46.97
47080;BME280;33067;49.296;14.470;2023-05-16T01:52:30;96520.58;;;11.84;47.53
47080;BME280;33067;49.296;14.470;2023-05-16T01:54:51;96518.26;;;11.22;47.83
47080;BME280;33067;49.296;14.470;2023-05-16T01:57:15;96514.86;;;11.23;47.76
47080;BME280;33067;49.296;14.470;2023-05-16T01:59:39;96513.60;;;11.75;47.65
47080;BME280;33067;49.296;14.470;2023-05-16T02:02:03;96515.03;;;11.62;47.85
47080;BME280;33067;49.296;14.470;2023-05-16T02:04:28;96513.83;;;11.65;47.71
47080;BME280;33067;49.296;14.470;2023-05-16T02:06:53;96512.47;;;11.52;47.63
47080;BME280;33067;49.296;14.470;2023-05-16T02:09:20;96512.59;;;11.32;47.84
47080;BME280;33067;49.296;14.470;2023-05-16T02:13:01;96512.10;;;11.65;45.90
47080;BME280;33067;49.296;14.470;2023-05-16T02:15:26;96511.12;;;11.90;45.98
47080;BME280;33067;49.296;14.470;2023-05-16T02:17:51;96513.37;;;11.66;46.58
47080;BME280;33067;49.296;14.470;2023-05-16T02:20:17;96520.50;;;11.39;46.89
47080;BME280;33067;49.296;14.470;2023-05-16T02:22:41;96524.30;;;11.34;46.88
47080;BME280;33067;49.296;14.470;2023-05-16T02:25:08;96526.96;;;11.73;46.38
47080;BME280;33067;49.296;14.470;2023-05-16T02:27:33;96523.08;;;11.21;46.88
47080;BME280;33067;49.296;14.470;2023-05-16T02:29:58;96524.82;;;11.28;46.83
47080;BME280;33067;49.296;14.470;2023-05-16T02:32:24;96525.92;;;11.41;46.91
47080;BME280;33067;49.296;14.470;2023-05-16T02:34:48;96525.95;;;11.24;46.89
47080;BME280;33067;49.296;14.470;2023-05-16T02:37:13;96523.33;;;11.54;46.73
47080;BME280;33067;49.296;14.470;2023-05-16T02:39:39;96524.27;;;11.72;46.56
47080;BME280;33067;49.296;14.470;2023-05-16T02:42:05;96523.57;;;11.42;47.24
47080;BME280;33067;49.296;14.470;2023-05-16T02:44:29;96527.56;;;11.30;47.54
47080;BME280;33067;49.296;14.470;2023-05-16T02:46:55;96530.96;;;11.33;47.69
47080;BME280;33067;49.296;14.470;2023-05-16T02:49:20;96532.79;;;11.06;47.24
47080;BME280;33067;49.296;14.470;2023-05-16T02:51:45;96534.86;;;11.42;47.66
47080;BME280;33067;49.296;14.470;2023-05-16T02:54:11;96531.36;;;11.37;47.25
47080;BME280;33067;49.296;14.470;2023-05-16T02:56:36;96531.34;;;11.53;47.25
47080;BME280;33067;49.296;14.470;2023-05-16T02:59:02;96532.12;;;11.53;47.32
47080;BME280;33067;49.296;14.470;2023-05-16T03:01:27;96536.99;;;11.49;47.29
47080;BME280;33067;49.296;14.470;2023-05-16T03:03:52;96543.28;;;10.97;47.36
47080;BME280;33067;49.296;14.470;2023-05-16T03:06:17;96547.85;;;11.40;47.27
47080;BME280;33067;49.296;14.470;2023-05-16T03:08:42;96549.07;;;11.28;47.55
47080;BME280;33067;49.296;14.470;2023-05-16T03:11:07;96547.01;;;10.98;47.73
47080;BME280;33067;49.296;14.470;2023-05-16T03:13:33;96544.78;;;11.13;47.72
47080;BME280;33067;49.296;14.470;2023-05-16T03:15:59;96547.58;;;10.87;48.60
47080;BME280;33067;49.296;14.470;2023-05-16T03:18:23;96550.32;;;11.17;48.07
47080;BME280;33067;49.296;14.470;2023-05-16T03:20:48;96552.20;;;11.23;47.86
47080;BME280;33067;49.296;14.470;2023-05-16T03:23:13;96557.95;;;11.11;47.71
47080;BME280;33067;49.296;14.470;2023-05-16T03:25:39;96560.59;;;11.06;48.13
47080;BME280;33067;49.296;14.470;2023-05-16T03:28:05;96560.31;;;11.09;47.95
47080;BME280;33067;49.296;14.470;2023-05-16T03:30:29;96560.91;;;11.15;47.92
47080;BME280;33067;49.296;14.470;2023-05-16T03:32:55;96558.97;;;10.88;48.48
47080;BME280;33067;49.296;14.470;2023-05-16T03:35:20;96558.55;;;10.92;47.94
47080;BME280;33067;49.296;14.470;2023-05-16T03:37:45;96558.59;;;11.30;47.63
47080;BME280;33067;49.296;14.470;2023-05-16T03:40:11;96562.59;;;10.98;48.31
47080;BME280;33067;49.296;14.470;2023-05-16T03:42:36;96565.09;;;10.53;48.63
47080;BME280;33067;49.296;14.470;2023-05-16T03:45:05;96564.63;;;10.82;48.54
47080;BME280;33067;49.296;14.470;2023-05-16T03:47:27;96564.60;;;10.95;48.29
47080;BME280;33067;49.296;14.470;2023-05-16T03:49:53;96566.88;;;11.02;48.06
47080;BME280;33067;49.296;14.470;2023-05-16T03:52:18;96567.65;;;10.59;48.57
47080;BME280;33067;49.296;14.470;2023-05-16T03:54:44;96566.40;;;10.98;48.39
47080;BME280;33067;49.296;14.470;2023-05-16T03:57:11;96565.02;;;11.10;48.12
47080;BME280;33067;49.296;14.470;2023-05-16T03:59:34;96562.17;;;11.19;48.04
47080;BME280;33067;49.296;14.470;2023-05-16T04:02:00;96559.20;;;11.13;47.91
47080;BME280;33067;49.296;14.470;2023-05-16T04:04:25;96562.48;;;11.04;48.09
47080;BME280;33067;49.296;14.470;2023-05-16T04:06:50;96564.48;;;10.89;48.09
47080;BME280;33067;49.296;14.470;2023-05-16T04:09:15;96562.12;;;10.87;48.12
47080;BME280;33067;49.296;14.470;2023-05-16T04:11:41;96566.20;;;10.57;48.42
47080;BME280;33067;49.296;14.470;2023-05-16T04:14:07;96565.85;;;10.73;47.82
47080;BME280;33067;49.296;14.470;2023-05-16T04:16:33;96563.13;;;10.06;48.46
47080;BME280;33067;49.296;14.470;2023-05-16T04:18:58;96562.09;;;10.41;48.37
47080;BME280;33067;49.296;14.470;2023-05-16T04:21:23;96557.42;;;10.29;48.20
47080;BME280;33067;49.296;14.470;2023-05-16T04:23:49;96555.85;;;10.35;48.13
47080;BME280;33067;49.296;14.470;2023-05-16T04:26:14;96555.27;;;10.34;48.03
47080;BME280;33067;49.296;14.470;2023-05-16T04:28:39;96557.70;;;10.17;48.23
47080;BME280;33067;49.296;14.470;2023-05-16T04:31:04;96560.77;;;9.95;48.57
47080;BME280;33067;49.296;14.470;2023-05-16T04:33:30;96561.51;;;10.19;48.05
47080;BME280;33067;49.296;14.470;2023-05-16T04:35:55;96563.83;;;10.21;48.55
47080;BME280;33067;49.296;14.470;2023-05-16T04:38:21;96562.51;;;9.74;48.83
47080;BME280;33067;49.296;14.470;2023-05-16T04:40:46;96558.15;;;10.11;49.20
47080;BME280;33067;49.296;14.470;2023-05-16T04:43:12;96550.72;;;10.54;49.31
47080;BME280;33067;49.296;14.470;2023-05-16T04:45:37;96555.20;;;10.23;49.24
47080;BME280;33067;49.296;14.470;2023-05-16T04:48:03;96559.91;;;10.08;49.96
47080;BME280;33067;49.296;14.470;2023-05-16T04:50:28;96564.17;;;10.47;49.45
47080;BME280;33067;49.296;14.470;2023-05-16T04:52:53;96564.41;;;10.60;49.01
47080;BME280;33067;49.296;14.470;2023-05-16T04:55:19;96560.17;;;10.91;49.18
47080;BME280;33067;49.296;14.470;2023-05-16T04:57:44;96555.77;;;10.76;48.91
47080;BME280;33067;49.296;14.470;2023-05-16T05:00:10;96552.11;;;10.77;48.61
47080;BME280;33067;49.296;14.470;2023-05-16T05:02:35;96556.95;;;10.79;48.83
47080;BME280;33067;49.296;14.470;2023-05-16T05:05:00;96555.84;;;11.05;48.42
47080;BME280;33067;49.296;14.470;2023-05-16T05:07:25;96554.60;;;11.04;48.22
47080;BME280;33067;49.296;14.470;2023-05-16T05:09:50;96556.89;;;11.07;48.17
47080;BME280;33067;49.296;14.470;2023-05-16T05:12:15;96559.43;;;10.97;47.85
47080;BME280;33067;49.296;14.470;2023-05-16T05:14:40;96562.98;;;11.23;47.77
47080;BME280;33067;49.296;14.470;2023-05-16T05:17:06;96562.35;;;11.23;47.97
47080;BME280;33067;49.296;14.470;2023-05-16T05:19:31;96564.94;;;11.38;47.70
47080;BME280;33067;49.296;14.470;2023-05-16T05:21:56;96565.82;;;10.96;49.01
47080;BME280;33067;49.296;14.470;2023-05-16T05:24:23;96563.76;;;10.97;48.34
47080;BME280;33067;49.296;14.470;2023-05-16T05:26:47;96559.36;;;11.06;47.64
47080;BME280;33067;49.296;14.470;2023-05-16T05:29:12;96562.30;;;11.41;48.03
47080;BME280;33067;49.296;14.470;2023-05-16T05:31:39;96568.67;;;11.27;48.33
47080;BME280;33067;49.296;14.470;2023-05-16T05:34:03;96574.20;;;11.38;48.88
47080;BME280;33067;49.296;14.470;2023-05-16T05:36:29;96577.23;;;11.48;48.82
47080;BME280;33067;49.296;14.470;2023-05-16T05:38:54;96576.95;;;11.77;48.62
47080;BME280;33067;49.296;14.470;2023-05-16T05:41:19;96577.75;;;11.49;48.85
47080;BME280;33067;49.296;14.470;2023-05-16T05:43:45;96577.25;;;11.16;49.06
47080;BME280;33067;49.296;14.470;2023-05-16T05:46:11;96574.57;;;11.47;48.51
47080;BME280;33067;49.296;14.470;2023-05-16T05:48:37;96572.39;;;11.74;48.34
47080;BME280;33067;49.296;14.470;2023-05-16T05:51:02;96572.55;;;11.48;48.71
47080;BME280;33067;49.296;14.470;2023-05-16T05:53:28;96575.08;;;11.63;48.55
47080;BME280;33067;49.296;14.470;2023-05-16T05:55:53;96573.00;;;11.79;48.59
47080;BME280;33067;49.296;14.470;2023-05-16T05:58:20;96568.28;;;11.64;48.70
47080;BME280;33067;49.296;14.470;2023-05-16T06:00:45;96571.16;;;11.78;48.35
47080;BME280;33067;49.296;14.470;2023-05-16T06:03:10;96569.77;;;11.69;49.03
47080;BME280;33067;49.296;14.470;2023-05-16T06:05:35;96564.34;;;11.93;48.50
47080;BME280;33067;49.296;14.470;2023-05-16T06:08:03;96559.13;;;12.27;48.18
47080;BME280;33067;49.296;14.470;2023-05-16T06:10:27;96557.15;;;12.19;48.34
47080;BME280;33067;49.296;14.470;2023-05-16T06:12:52;96548.20;;;12.40;48.16
47080;BME280;33067;49.296;14.470;2023-05-16T06:15:18;96546.06;;;12.37;48.43
47080;BME280;33067;49.296;14.470;2023-05-16T06:17:42;96536.49;;;12.59;48.12
47080;BME280;33067;49.296;14.470;2023-05-16T06:20:09;96538.77;;;12.64;48.28
47080;BME280;33067;49.296;14.470;2023-05-16T06:22:33;96532.47;;;12.91;47.55
47080;BME280;33067;49.296;14.470;2023-05-16T06:24:59;96528.47;;;12.75;48.47
47080;BME280;33067;49.296;14.470;2023-05-16T06:27:24;96525.84;;;12.94;48.57
47080;BME280;33067;49.296;14.470;2023-05-16T06:29:51;96526.65;;;13.13;48.29
47080;BME280;33067;49.296;14.470;2023-05-16T06:32:14;96523.88;;;13.35;47.46
47080;BME280;33067;49.296;14.470;2023-05-16T06:34:40;96532.67;;;13.43;48.08
47080;BME280;33067;49.296;14.470;2023-05-16T06:37:06;96533.51;;;13.78;47.39
47080;BME280;33067;49.296;14.470;2023-05-16T06:39:31;96537.11;;;13.85;47.37
47080;BME280;33067;49.296;14.470;2023-05-16T06:41:56;96535.56;;;13.86;46.68
47080;BME280;33067;49.296;14.470;2023-05-16T06:44:22;96535.44;;;13.72;47.64
47080;BME280;33067;49.296;14.470;2023-05-16T06:46:47;96536.96;;;14.71;45.88
47080;BME280;33067;49.296;14.470;2023-05-16T06:49:13;96540.31;;;15.10;45.82
47080;BME280;33067;49.296;14.470;2023-05-16T06:51:39;96547.62;;;14.89;45.15
47080;BME280;33067;49.296;14.470;2023-05-16T06:54:04;96553.94;;;14.94;45.39
47080;BME280;33067;49.296;14.470;2023-05-16T06:56:29;96555.99;;;14.92;46.48
47080;BME280;33067;49.296;14.470;2023-05-16T06:58:54;96563.99;;;15.14;45.58
47080;BME280;33067;49.296;14.470;2023-05-16T07:01:19;96563.63;;;15.50;46.02
47080;BME280;33067;49.296;14.470;2023-05-16T07:03:45;96560.58;;;15.63;45.37
47080;BME280;33067;49.296;14.470;2023-05-16T07:06:11;96558.61;;;15.26;45.36
47080;BME280;33067;49.296;14.470;2023-05-16T07:08:37;96558.13;;;15.44;45.14
47080;BME280;33067;49.296;14.470;2023-05-16T07:11:02;96557.07;;;15.62;45.36
47080;BME280;33067;49.296;14.470;2023-05-16T07:13:29;96558.47;;;15.39;44.74
47080;BME280;33067;49.296;14.470;2023-05-16T07:15:53;96564.23;;;16.24;44.30
47080;BME280;33067;49.296;14.470;2023-05-16T07:18:19;96568.04;;;15.87;44.23
47080;BME280;33067;49.296;14.470;2023-05-16T07:20:44;96571.69;;;15.91;43.93
47080;BME280;33067;49.296;14.470;2023-05-16T07:23:09;96575.22;;;16.83;42.58
47080;BME280;33067;49.296;14.470;2023-05-16T07:25:35;96582.60;;;17.14;42.05
47080;BME280;33067;49.296;14.470;2023-05-16T07:28:02;96590.82;;;17.65;40.25
47080;BME280;33067;49.296;14.470;2023-05-16T07:30:26;96592.45;;;17.45;41.46
47080;BME280;33067;49.296;14.470;2023-05-16T07:32:51;96593.73;;;17.46;42.35
47080;BME280;33067;49.296;14.470;2023-05-16T07:35:17;96594.31;;;17.48;42.69
47080;BME280;33067;49.296;14.470;2023-05-16T07:37:42;96599.58;;;17.95;40.65
47080;BME280;33067;49.296;14.470;2023-05-16T07:40:09;96609.58;;;18.33;40.41
47080;BME280;33067;49.296;14.470;2023-05-16T07:42:33;96617.70;;;17.67;41.60
47080;BME280;33067;49.296;14.470;2023-05-16T07:44:59;96615.65;;;17.64;41.21
47080;BME280;33067;49.296;14.470;2023-05-16T07:47:25;96613.26;;;17.82;41.56
47080;BME280;33067;49.296;14.470;2023-05-16T07:49:50;96607.58;;;18.12;41.43
47080;BME280;33067;49.296;14.470;2023-05-16T07:52:15;96594.96;;;17.71;41.69
47080;BME280;33067;49.296;14.470;2023-05-16T07:54:40;96591.63;;;17.76;41.79
47080;BME280;33067;49.296;14.470;2023-05-16T07:57:06;96595.96;;;17.91;41.36
47080;BME280;33067;49.296;14.470;2023-05-16T07:59:32;96601.15;;;17.54;40.66
47080;BME280;33067;49.296;14.470;2023-05-16T08:01:57;96601.64;;;17.97;40.49
47080;BME280;33067;49.296;14.470;2023-05-16T08:04:22;96596.73;;;18.16;40.54
47080;BME280;33067;49.296;14.470;2023-05-16T08:06:48;96588.97;;;18.09;40.01
47080;BME280;33067;49.296;14.470;2023-05-16T08:09:14;96584.13;;;17.84;40.32
47080;BME280;33067;49.296;14.470;2023-05-16T08:11:39;96580.92;;;17.38;40.56
47080;BME280;33067;49.296;14.470;2023-05-16T08:14:04;96575.58;;;17.03;40.73
47080;BME280;33067;49.296;14.470;2023-05-16T08:16:31;96570.84;;;17.44;40.51
47080;BME280;33067;49.296;14.470;2023-05-16T08:18:56;96572.06;;;17.95;39.93
47080;BME280;33067;49.296;14.470;2023-05-16T08:21:22;96573.18;;;18.39;39.66
47080;BME280;33067;49.296;14.470;2023-05-16T08:23:47;96580.97;;;18.57;40.09
47080;BME280;33067;49.296;14.470;2023-05-16T08:26:12;96588.08;;;18.77;39.26
47080;BME280;33067;49.296;14.470;2023-05-16T08:28:38;96590.84;;;18.76;39.26
47080;BME280;33067;49.296;14.470;2023-05-16T08:31:03;96596.16;;;18.76;38.78
47080;BME280;33067;49.296;14.470;2023-05-16T08:33:28;96599.27;;;18.68;40.11
47080;BME280;33067;49.296;14.470;2023-05-16T08:35:54;96600.99;;;18.53;40.05
47080;BME280;33067;49.296;14.470;2023-05-16T08:38:19;96598.78;;;18.26;39.25
47080;BME280;33067;49.296;14.470;2023-05-16T08:40:45;96596.51;;;18.20;39.30
47080;BME280;33067;49.296;14.470;2023-05-16T08:43:10;96594.80;;;17.77;40.23
47080;BME280;33067;49.296;14.470;2023-05-16T08:45:36;96588.07;;;18.56;39.74
47080;BME280;33067;49.296;14.470;2023-05-16T08:48:01;96583.89;;;18.84;39.11
47080;BME280;33067;49.296;14.470;2023-05-16T08:50:29;96583.51;;;18.43;39.79
47080;BME280;33067;49.296;14.470;2023-05-16T08:52:52;96580.12;;;18.59;39.81
47080;BME280;33067;49.296;14.470;2023-05-16T08:55:18;96588.07;;;18.78;39.34
47080;BME280;33067;49.296;14.470;2023-05-16T08:57:44;96590.84;;;18.80;39.05
47080;BME280;33067;49.296;14.470;2023-05-16T09:00:08;96593.51;;;19.27;38.66
47080;BME280;33067;49.296;14.470;2023-05-16T09:02:32;96591.15;;;19.00;38.98
47080;BME280;33067;49.296;14.470;2023-05-16T09:04:58;96588.90;;;19.69;38.37
47080;BME280;33067;49.296;14.470;2023-05-16T09:07:23;96591.21;;;19.95;37.25
47080;BME280;33067;49.296;14.470;2023-05-16T09:09:48;96586.36;;;19.62;37.34
47080;BME280;33067;49.296;14.470;2023-05-16T09:12:15;96586.67;;;19.78;37.67
47080;BME280;33067;49.296;14.470;2023-05-16T09:14:38;96586.70;;;19.78;38.49
47080;BME280;33067;49.296;14.470;2023-05-16T09:17:05;96589.33;;;18.59;39.32
47080;BME280;33067;49.296;14.470;2023-05-16T09:19:38;96590.94;;;18.90;39.27
47080;BME280;33067;49.296;14.470;2023-05-16T09:21:55;96587.64;;;19.08;39.54
47080;BME280;33067;49.296;14.470;2023-05-16T09:24:25;96588.68;;;19.41;37.99
47080;BME280;33067;49.296;14.470;2023-05-16T09:26:46;96584.62;;;18.91;39.07
47080;BME280;33067;49.296;14.470;2023-05-16T09:29:12;96586.79;;;19.32;38.28
47080;BME280;33067;49.296;14.470;2023-05-16T09:31:37;96585.53;;;19.14;37.77
47080;BME280;33067;49.296;14.470;2023-05-16T09:34:07;96580.29;;;19.54;36.54
47080;BME280;33067;49.296;14.470;2023-05-16T09:36:30;96578.76;;;19.66;36.74
47080;BME280;33067;49.296;14.470;2023-05-16T09:38:59;96570.01;;;19.54;37.34
47080;BME280;33067;49.296;14.470;2023-05-16T09:41:33;96562.67;;;18.65;38.21
47080;BME280;33067;49.296;14.470;2023-05-16T09:43:46;96558.95;;;18.79;38.92
47080;BME280;33067;49.296;14.470;2023-05-16T09:46:11;96557.87;;;19.31;37.63
47080;BME280;33067;49.296;14.470;2023-05-16T09:48:35;96558.89;;;19.23;37.63
47080;BME280;33067;49.296;14.470;2023-05-16T09:51:00;96561.18;;;19.45;37.90
47080;BME280;33067;49.296;14.470;2023-05-16T09:53:28;96558.70;;;19.72;37.45
47080;BME280;33067;49.296;14.470;2023-05-16T09:55:58;96558.01;;;19.65;36.89
47080;BME280;33067;49.296;14.470;2023-05-16T09:58:17;96556.94;;;19.31;36.79
47080;BME280;33067;49.296;14.470;2023-05-16T10:00:42;96556.94;;;19.84;37.11
47080;BME280;33067;49.296;14.470;2023-05-16T10:03:08;96551.78;;;19.56;37.30
47080;BME280;33067;49.296;14.470;2023-05-16T10:05:33;96549.48;;;18.50;37.37
47080;BME280;33067;49.296;14.470;2023-05-16T10:07:59;96553.42;;;19.60;37.10
47080;BME280;33067;49.296;14.470;2023-05-16T10:10:24;96551.55;;;19.33;37.12
47080;BME280;33067;49.296;14.470;2023-05-16T10:12:49;96543.94;;;18.70;37.91
47080;BME280;33067;49.296;14.470;2023-05-16T10:15:15;96537.56;;;19.03;37.78
47080;BME280;33067;49.296;14.470;2023-05-16T10:17:42;96534.52;;;18.92;37.52
47080;BME280;33067;49.296;14.470;2023-05-16T10:20:09;96524.77;;;19.34;37.72
47080;BME280;33067;49.296;14.470;2023-05-16T10:22:33;96521.03;;;19.39;37.48
47080;BME280;33067;49.296;14.470;2023-05-16T10:25:06;96515.44;;;19.47;37.35
47080;BME280;33067;49.296;14.470;2023-05-16T10:27:22;96504.86;;;19.50;37.49
47080;BME280;33067;49.296;14.470;2023-05-16T10:29:47;96500.68;;;19.35;37.48
47080;BME280;33067;49.296;14.470;2023-05-16T10:32:12;96499.23;;;19.29;37.78
47080;BME280;33067;49.296;14.470;2023-05-16T10:34:38;96492.22;;;19.57;36.03
47080;BME280;33067;49.296;14.470;2023-05-16T10:37:03;96488.32;;;18.64;36.97
47080;BME280;33067;49.296;14.470;2023-05-16T10:39:29;96490.41;;;18.39;37.46
47080;BME280;33067;49.296;14.470;2023-05-16T10:41:53;96491.26;;;18.37;37.66
47080;BME280;33067;49.296;14.470;2023-05-16T10:44:18;96493.33;;;17.52;38.30
47080;BME280;33067;49.296;14.470;2023-05-16T10:46:45;96501.54;;;17.42;38.60
47080;BME280;33067;49.296;14.470;2023-05-16T10:49:19;96498.14;;;18.06;38.51
47080;BME280;33067;49.296;14.470;2023-05-16T10:51:37;96498.32;;;18.59;38.55
47080;BME280;33067;49.296;14.470;2023-05-16T10:54:04;96491.80;;;18.49;38.27
47080;BME280;33067;49.296;14.470;2023-05-16T10:56:26;96505.27;;;18.61;38.26
47080;BME280;33067;49.296;14.470;2023-05-16T10:58:52;96510.43;;;19.06;38.86
47080;BME280;33067;49.296;14.470;2023-05-16T11:01:16;96510.68;;;18.86;38.75
47080;BME280;33067;49.296;14.470;2023-05-16T11:06:06;96526.60;;;18.89;38.37
47080;BME280;33067;49.296;14.470;2023-05-16T11:08:34;96539.63;;;19.27;38.05
47080;BME280;33067;49.296;14.470;2023-05-16T11:13:23;96556.82;;;19.27;38.37
47080;BME280;33067;49.296;14.470;2023-05-16T11:15:48;96557.91;;;19.49;37.70
47080;BME280;33067;49.296;14.470;2023-05-16T11:18:15;96550.15;;;19.29;38.21
47080;BME280;33067;49.296;14.470;2023-05-16T11:20:40;96552.37;;;19.44;37.85
47080;BME280;33067;49.296;14.470;2023-05-16T11:23:19;96549.78;;;18.94;37.90
47080;BME280;33067;49.296;14.470;2023-05-16T11:25:35;96543.34;;;18.93;37.78
47080;BME280;33067;49.296;14.470;2023-05-16T11:27:56;96541.20;;;18.56;38.01
47080;BME280;33067;49.296;14.470;2023-05-16T11:30:21;96541.96;;;18.80;38.21
47080;BME280;33067;49.296;14.470;2023-05-16T11:32:47;96539.39;;;18.13;38.16
47080;BME280;33067;49.296;14.470;2023-05-16T11:35:14;96531.42;;;18.45;38.47
47080;BME280;33067;49.296;14.470;2023-05-16T11:37:38;96537.20;;;18.78;37.95
47080;BME280;33067;49.296;14.470;2023-05-16T11:40:07;96535.34;;;19.04;37.29
47080;BME280;33067;49.296;14.470;2023-05-16T11:42:29;96543.60;;;18.53;37.83
47080;BME280;33067;49.296;14.470;2023-05-16T11:45:02;96555.75;;;18.82;37.65
47080;BME280;33067;49.296;14.470;2023-05-16T11:47:19;96565.16;;;18.43;38.75
47080;BME280;33067;49.296;14.470;2023-05-16T11:49:44;96561.93;;;18.43;38.54
47080;BME280;33067;49.296;14.470;2023-05-16T11:52:10;96559.28;;;18.80;38.08
47080;BME280;33067;49.296;14.470;2023-05-16T11:54:35;96561.75;;;17.75;39.39
47080;BME280;33067;49.296;14.470;2023-05-16T11:57:00;96566.76;;;17.85;39.30
47080;BME280;33067;49.296;14.470;2023-05-16T11:59:27;96570.61;;;18.03;39.52
47080;BME280;33067;49.296;14.470;2023-05-16T12:01:51;96570.21;;;18.48;39.25
47080;BME280;33067;49.296;14.470;2023-05-16T12:04:17;96571.51;;;17.75;39.43
47080;BME280;33067;49.296;14.470;2023-05-16T12:06:43;96568.84;;;18.29;38.68
47080;BME280;33067;49.296;14.470;2023-05-16T12:09:12;96565.06;;;18.08;38.75
47080;BME280;33067;49.296;14.470;2023-05-16T12:11:33;96551.22;;;17.73;38.98
47080;BME280;33067;49.296;14.470;2023-05-16T12:13:58;96554.10;;;16.85;40.53
47080;BME280;33067;49.296;14.470;2023-05-16T12:16:24;96550.86;;;17.87;39.03
47080;BME280;33067;49.296;14.470;2023-05-16T12:18:49;96549.67;;;18.05;39.00
47080;BME280;33067;49.296;14.470;2023-05-16T12:21:15;96547.58;;;17.72;39.57
47080;BME280;33067;49.296;14.470;2023-05-16T12:23:41;96538.68;;;17.92;38.97
47080;BME280;33067;49.296;14.470;2023-05-16T12:26:05;96531.37;;;17.55;39.23
47080;BME280;33067;49.296;14.470;2023-05-16T12:28:32;96524.28;;;17.61;39.25
47080;BME280;33067;49.296;14.470;2023-05-16T12:30:57;96524.41;;;17.68;39.10
47080;BME280;33067;49.296;14.470;2023-05-16T12:33:23;96524.48;;;16.89;39.48
47080;BME280;33067;49.296;14.470;2023-05-16T12:35:48;96522.17;;;16.98;39.97
47080;BME280;33067;49.296;14.470;2023-05-16T12:38:15;96524.04;;;17.56;39.29
47080;BME280;33067;49.296;14.470;2023-05-16T12:40:40;96531.09;;;16.87;40.18
47080;BME280;33067;49.296;14.470;2023-05-16T12:43:13;96528.07;;;17.61;39.77
47080;BME280;33067;49.296;14.470;2023-05-16T12:45:32;96528.99;;;18.03;39.18
47080;BME280;33067;49.296;14.470;2023-05-16T12:47:56;96523.24;;;17.96;38.30